Time;durP1;ratioP1;P1;durP2;ratioP2;P2;SDS_P1;SDS_P2;PMS_P1;PMS_P2;Temp;Humidity;BMP_temperature;BMP_pressure;BME280_temperature;BME280_humidity;BME280_pressure;Samples;Min_cycle;Max_cycle;Signal;HPM_P1;HPM_P2
2021/07/26 00:04:43;;;;;;;9.10;8.07;;;;;;;18.13;100.00;98533.50;10420042;28;20195;-77
2021/07/26 00:10:04;;;;;;;14.97;8.77;;;;;;;18.10;100.00;98528.84;10420125;28;20175;-78
2021/07/26 00:15:22;;;;;;;9.73;7.37;;;;;;;18.22;100.00;98525.16;10444646;28;20622;-78
2021/07/26 00:20:41;;;;;;;8.57;7.80;;;;;;;18.07;100.00;98527.00;10445698;28;20528;-76
2021/07/26 00:26:00;;;;;;;9.20;8.20;;;;;;;17.91;100.00;98518.94;10460588;28;20587;-77
2021/07/26 00:31:20;;;;;;;10.33;8.37;;;;;;;17.76;100.00;98529.09;10416290;28;20223;-76
2021/07/26 00:36:41;;;;;;;8.83;7.63;;;;;;;17.67;100.00;98534.63;10417753;28;20669;-76
2021/07/26 00:42:01;;;;;;;9.23;8.37;;;;;;;17.60;100.00;98536.94;10385284;28;20674;-77
2021/07/26 00:47:20;;;;;;;9.73;8.77;;;;;;;17.71;100.00;98542.84;10376444;28;20176;-78
2021/07/26 00:52:39;;;;;;;9.83;8.90;;;;;;;17.65;100.00;98522.44;10376465;28;20207;-77
2021/07/26 00:57:58;;;;;;;8.27;7.40;;;;;;;17.61;100.00;98507.88;10376974;28;20208;-76
2021/07/26 01:03:17;;;;;;;12.17;8.00;;;;;;;17.48;100.00;98520.38;10375353;28;20196;-77
2021/07/26 01:08:36;;;;;;;10.27;9.27;;;;;;;17.37;100.00;98526.34;10379652;28;20171;-77
2021/07/26 01:13:56;;;;;;;8.50;7.37;;;;;;;17.33;100.00;98520.16;10414811;28;20651;-77
2021/07/26 01:19:16;;;;;;;10.87;9.43;;;;;;;17.25;100.00;98527.19;10416657;28;20203;-77
2021/07/26 01:24:35;;;;;;;10.70;9.60;;;;;;;17.17;100.00;98548.16;10415826;28;20188;-78
2021/07/26 01:29:54;;;;;;;9.30;8.00;;;;;;;17.10;100.00;98555.97;10430354;28;20219;-76
2021/07/26 01:35:13;;;;;;;9.00;8.30;;;;;;;17.04;100.00;98558.56;10453402;28;20175;-77
2021/07/26 01:40:34;;;;;;;9.33;8.30;;;;;;;17.08;100.00;98570.34;10401174;28;20650;-76
2021/07/26 01:46:18;;;;;;;9.20;8.27;;;;;;;17.10;100.00;98561.53;10400096;28;20628;-77
2021/07/26 01:51:40;;;;;;;9.60;8.73;;;;;;;17.13;100.00;98563.41;10415655;28;20184;-77
2021/07/26 01:57:00;;;;;;;8.40;7.60;;;;;;;17.05;100.00;98556.59;10415777;28;20629;-77
2021/07/26 02:02:20;;;;;;;12.00;8.53;;;;;;;17.09;100.00;98560.78;10414493;28;20203;-78
2021/07/26 02:07:38;;;;;;;8.87;8.07;;;;;;;16.98;100.00;98565.94;10400170;28;20176;-77
2021/07/26 02:12:58;;;;;;;13.63;8.33;;;;;;;17.04;100.00;98575.25;10400526;28;20638;-77
2021/07/26 02:18:17;;;;;;;8.87;8.07;;;;;;;16.87;100.00;98590.59;10414746;28;20208;-77
2021/07/26 02:23:36;;;;;;;12.33;8.30;;;;;;;16.82;100.00;98596.72;10415083;28;20176;-77
2021/07/26 02:28:55;;;;;;;12.23;8.80;;;;;;;16.83;100.00;98606.59;10413539;28;20694;-76
2021/07/26 02:34:14;;;;;;;12.57;9.03;;;;;;;16.99;100.00;98614.75;10400096;28;20187;-77
2021/07/26 02:39:33;;;;;;;11.37;8.80;;;;;;;17.02;100.00;98630.53;10414295;28;20216;-76
2021/07/26 02:44:52;;;;;;;12.57;8.67;;;;;;;16.79;100.00;98625.41;10398455;28;20176;-76
2021/07/26 02:50:12;;;;;;;13.83;8.87;;;;;;;16.71;100.00;98630.91;10414636;28;20184;-77
2021/07/26 02:55:31;;;;;;;10.60;9.30;;;;;;;16.63;100.00;98621.28;10399279;28;20638;-77
2021/07/26 03:00:50;;;;;;;9.60;7.70;;;;;;;16.60;100.00;98616.59;10398153;28;20180;-78
2021/07/26 03:06:27;;;;;;;8.50;7.23;;;;;;;16.55;100.00;98625.53;10440095;28;20187;-77
2021/07/26 03:11:46;;;;;;;8.20;7.40;;;;;;;16.49;100.00;98625.31;10434249;28;20546;-78
2021/07/26 03:17:05;;;;;;;9.60;8.70;;;;;;;16.48;100.00;98628.50;10420645;28;20653;-77
2021/07/26 03:22:59;;;;;;;8.90;8.10;;;;;;;16.41;100.00;98632.34;10406690;28;20180;-77
2021/07/26 03:28:18;;;;;;;11.70;7.60;;;;;;;16.35;100.00;98641.66;10436175;28;20302;-77
2021/07/26 03:33:37;;;;;;;9.43;8.47;;;;;;;16.49;100.00;98643.94;10447479;28;20528;-77
2021/07/26 03:38:56;;;;;;;12.27;9.00;;;;;;;16.47;100.00;98635.31;10446786;28;20202;-77
2021/07/26 03:44:15;;;;;;;9.03;8.10;;;;;;;16.20;100.00;98635.78;10446015;28;20179;-78
2021/07/26 03:49:34;;;;;;;11.37;8.47;;;;;;;16.15;100.00;98636.34;10446938;28;20687;-78
2021/07/26 03:54:57;;;;;;;9.60;8.70;;;;;;;16.15;100.00;98643.91;10442054;28;20242;-79
2021/07/26 04:00:18;;;;;;;12.07;8.57;;;;;;;16.15;100.00;98646.69;10403583;28;20678;-77
2021/07/26 04:05:39;;;;;;;11.00;8.77;;;;;;;16.03;100.00;98645.44;10420300;28;20241;-77
2021/07/26 04:11:10;;;;;;;8.70;7.67;;;;;;;16.02;100.00;98643.94;10420081;28;20248;-77
2021/07/26 04:16:30;;;;;;;9.80;8.80;;;;;;;16.08;100.00;98652.44;10402976;28;20283;-78
2021/07/26 04:21:49;;;;;;;9.93;8.93;;;;;;;16.09;100.00;98656.78;10419594;28;20176;-77
2021/07/26 04:27:08;;;;;;;10.70;8.70;;;;;;;16.20;100.00;98665.53;10441841;28;20643;-78
2021/07/26 04:32:27;;;;;;;13.60;9.30;;;;;;;16.20;100.00;98676.63;10458508;28;20215;-79
2021/07/26 04:37:45;;;;;;;9.70;8.70;;;;;;;16.10;100.00;98663.88;10459787;28;20219;-78
2021/07/26 04:43:04;;;;;;;13.80;8.67;;;;;;;16.14;100.00;98667.34;10430916;28;20183;-77
2021/07/26 04:48:23;;;;;;;11.80;9.00;;;;;;;16.18;100.00;98668.78;10459654;28;20168;-78
2021/07/26 04:53:42;;;;;;;14.87;9.30;;;;;;;16.35;100.00;98677.75;10444539;28;20188;-77
2021/07/26 04:59:01;;;;;;;12.80;9.30;;;;;;;16.33;100.00;98674.63;10416679;28;20247;-76
2021/07/26 05:04:20;;;;;;;10.37;9.13;;;;;;;16.28;100.00;98661.31;10417855;28;20546;-77
2021/07/26 05:09:40;;;;;;;11.27;7.80;;;;;;;16.43;100.00;98662.41;10402769;28;20168;-76
2021/07/26 05:14:59;;;;;;;10.67;9.57;;;;;;;16.38;100.00;98668.53;10401252;28;20202;-77
2021/07/26 05:20:18;;;;;;;15.43;9.90;;;;;;;16.38;100.00;98671.31;10401792;28;20212;-78
2021/07/26 05:25:44;;;;;;;12.07;10.53;;;;;;;16.48;100.00;98667.38;10409093;28;20180;-77
2021/07/26 05:31:03;;;;;;;12.43;10.67;;;;;;;16.72;100.00;98668.56;10400338;28;20220;-77
2021/07/26 05:36:24;;;;;;;12.37;10.50;;;;;;;17.04;100.00;98680.84;10416527;28;20211;-80
2021/07/26 05:41:44;;;;;;;18.67;13.17;;;;;;;17.27;100.00;98683.22;10416669;28;20180;-78
2021/07/26 05:47:03;;;;;;;17.00;13.20;;;;;;;17.41;100.00;98670.78;10400245;28;20176;-79
2021/07/26 05:52:22;;;;;;;13.27;10.63;;;;;;;17.65;100.00;98678.22;10401109;28;20545;-78
2021/07/26 05:57:47;;;;;;;19.90;14.20;;;;;;;17.88;100.00;98680.47;10447030;28;20210;-78
2021/07/26 06:03:06;;;;;;;17.30;12.60;;;;;;;18.26;100.00;98672.59;10440375;28;20191;-79
2021/07/26 06:08:25;;;;;;;17.97;12.20;;;;;;;18.71;100.00;98651.16;10456787;28;20529;-78
2021/07/26 06:13:44;;;;;;;15.50;12.37;;;;;;;18.94;100.00;98650.59;10455281;28;20180;-79
2021/07/26 06:19:09;;;;;;;19.00;12.30;;;;;;;19.10;100.00;98655.88;10440831;28;20215;-77
2021/07/26 06:24:28;;;;;;;25.33;12.80;;;;;;;19.54;100.00;98652.22;10450766;28;20172;-78
2021/07/26 06:29:48;;;;;;;19.80;12.03;;;;;;;20.10;100.00;98651.09;10413431;28;20588;-79
2021/07/26 06:35:08;;;;;;;14.70;11.03;;;;;;;20.27;100.00;98657.81;10399073;28;20195;-78
2021/07/26 06:40:30;;;;;;;12.40;10.40;;;;;;;20.74;100.00;98652.25;10413944;28;20215;-79
2021/07/26 06:45:49;;;;;;;10.80;9.07;;;;;;;21.26;100.00;98652.31;10413401;28;20200;-79
2021/07/26 06:51:08;;;;;;;10.67;9.60;;;;;;;21.81;98.37;98662.47;10414517;28;20184;-77
2021/07/26 06:56:26;;;;;;;9.73;8.50;;;;;;;22.15;92.67;98664.53;10428276;28;20207;-78
2021/07/26 07:01:46;;;;;;;8.83;8.00;;;;;;;22.22;89.33;98664.13;10413136;28;20204;-77
2021/07/26 07:07:05;;;;;;;9.10;8.17;;;;;;;22.62;89.31;98672.63;10414263;28;20172;-78
2021/07/26 07:12:25;;;;;;;13.60;9.60;;;;;;;23.40;84.49;98670.28;10414070;28;20172;-77
2021/07/26 07:17:43;;;;;;;8.23;7.43;;;;;;;23.40;81.04;98664.69;10412440;28;20204;-79
2021/07/26 07:23:03;;;;;;;9.70;7.83;;;;;;;23.04;80.40;98681.38;10413968;28;20168;-77
2021/07/26 07:28:22;;;;;;;8.13;7.20;;;;;;;22.20;85.95;98674.28;10436743;28;20204;-78
2021/07/26 07:33:41;;;;;;;8.63;7.93;;;;;;;21.90;87.94;98681.19;10413356;28;20188;-77
2021/07/26 07:39:01;;;;;;;8.00;7.23;;;;;;;21.79;90.09;98683.81;10398237;28;20273;-77
2021/07/26 07:44:19;;;;;;;8.60;7.90;;;;;;;21.97;87.66;98681.56;10397428;28;20205;-78
2021/07/26 07:49:38;;;;;;;8.03;7.23;;;;;;;21.97;90.15;98683.59;10402535;28;20211;-77
2021/07/26 07:54:57;;;;;;;7.53;6.70;;;;;;;21.93;88.45;98685.81;10421056;28;20217;-78
2021/07/26 08:00:17;;;;;;;7.90;7.20;;;;;;;22.11;88.12;98699.63;10418599;28;20252;-77
2021/07/26 08:05:36;;;;;;;8.00;7.20;;;;;;;22.87;84.59;98700.00;10420325;28;20168;-77
2021/07/26 08:10:55;;;;;;;7.53;6.90;;;;;;;24.17;78.35;98697.88;10405217;28;20176;-78
2021/07/26 08:16:15;;;;;;;6.73;6.23;;;;;;;24.72;71.64;98695.44;10438196;28;20199;-78
2021/07/26 08:21:34;;;;;;;8.20;7.30;;;;;;;24.76;72.77;98700.81;10446050;28;20171;-77
2021/07/26 08:26:53;;;;;;;7.53;6.57;;;;;;;24.43;70.41;98707.00;10460668;28;20187;-78
2021/07/26 08:32:11;;;;;;;6.37;5.87;;;;;;;25.39;68.82;98702.94;10443655;28;20227;-78
2021/07/26 08:37:30;;;;;;;6.57;5.97;;;;;;;25.83;66.51;98706.63;10444936;28;20688;-77
2021/07/26 08:42:50;;;;;;;8.40;6.60;;;;;;;26.47;65.07;98712.03;10445053;28;20183;-78
2021/07/26 08:48:10;;;;;;;7.03;6.10;;;;;;;25.60;66.75;98715.50;10412047;28;20191;-78
2021/07/26 08:53:33;;;;;;;7.00;6.40;;;;;;;26.65;64.10;98713.00;10418511;28;20180;-79
2021/07/26 08:58:52;;;;;;;5.97;5.50;;;;;;;26.71;62.78;98718.66;10401391;28;20638;-78
2021/07/26 09:04:11;;;;;;;7.03;6.40;;;;;;;27.90;58.43;98713.03;10418136;28;20168;-77
2021/07/26 09:09:47;;;;;;;6.50;6.00;;;;;;;28.03;60.00;98704.72;10417882;28;20184;-77
2021/07/26 09:15:28;;;;;;;6.17;5.73;;;;;;;28.69;55.33;98705.66;10432972;28;20218;-77
2021/07/26 09:20:51;;;;;;;6.77;6.20;;;;;;;29.64;55.40;98709.72;10404326;28;20188;-77
2021/07/26 09:26:27;;;;;;;6.43;5.93;;;;;;;30.19;50.70;98715.31;10402161;28;20180;-78
2021/07/26 09:32:03;;;;;;;6.17;5.60;;;;;;;29.01;50.71;98711.53;10399955;28;20580;-78
2021/07/26 09:37:22;;;;;;;5.10;4.60;;;;;;;29.64;51.61;98710.47;10401463;28;20639;-78
2021/07/26 09:42:41;;;;;;;5.37;4.97;;;;;;;29.80;49.78;98711.53;10416450;28;20184;-78
2021/07/26 09:48:09;;;;;;;6.10;5.60;;;;;;;28.93;50.02;98702.09;10400475;28;20187;-79
2021/07/26 09:53:29;;;;;;;5.37;5.03;;;;;;;27.88;53.50;98712.78;10401224;28;20176;-77
2021/07/26 09:58:48;;;;;;;6.73;4.90;;;;;;;27.56;54.59;98711.66;10414190;28;20682;-78
2021/07/26 10:04:07;;;;;;;5.97;4.53;;;;;;;27.63;55.11;98716.78;10415843;28;20180;-78
2021/07/26 10:09:26;;;;;;;10.03;4.60;;;;;;;28.37;52.87;98706.75;10400495;28;20204;-78
2021/07/26 10:14:47;;;;;;;4.80;4.50;;;;;;;28.06;52.08;98709.31;10414811;28;20191;-78
2021/07/26 10:20:08;;;;;;;5.70;5.30;;;;;;;27.73;54.25;98704.66;10455573;28;20211;-77
2021/07/26 10:25:35;;;;;;;5.20;4.83;;;;;;;27.14;54.69;98698.00;10450285;28;20183;-77
2021/07/26 10:30:54;;;;;;;6.20;5.60;;;;;;;27.35;56.50;98690.72;10453899;28;20223;-76
2021/07/26 10:36:39;;;;;;;7.27;5.50;;;;;;;28.22;54.83;98692.25;10440546;28;20285;-77
2021/07/26 10:42:00;;;;;;;5.37;4.97;;;;;;;27.83;54.85;98696.63;10453961;28;20187;-77
2021/07/26 10:47:20;;;;;;;5.57;4.47;;;;;;;27.59;55.18;98702.16;10452839;28;20191;-77
2021/07/26 10:52:43;;;;;;;5.80;5.40;;;;;;;27.31;58.21;98686.63;10440710;28;20176;-77
2021/07/26 10:58:02;;;;;;;6.30;5.73;;;;;;;27.00;59.71;98698.31;10440357;28;20207;-77
2021/07/26 11:03:44;;;;;;;6.70;6.20;;;;;;;26.29;61.94;98692.78;10440289;28;20167;-77
2021/07/26 11:09:21;;;;;;;5.63;5.10;;;;;;;26.27;63.10;98695.34;10440926;28;20188;-77
2021/07/26 11:15:26;;;;;;;6.10;5.60;;;;;;;26.30;61.77;98691.50;10413105;28;20168;-77
2021/07/26 11:21:08;;;;;;;6.67;6.07;;;;;;;26.16;63.96;98684.09;10414161;28;20180;-77
2021/07/26 11:26:31;;;;;;;6.43;4.97;;;;;;;28.43;57.60;98668.59;10433262;28;20180;-77
2021/07/26 11:31:57;;;;;;;5.90;5.40;;;;;;;30.70;46.73;98669.25;10419870;28;20224;-77
2021/07/26 11:37:16;;;;;;;6.43;4.90;;;;;;;32.04;43.51;98653.94;10406310;28;20208;-77
2021/07/26 11:42:37;;;;;;;4.97;4.57;;;;;;;31.10;42.57;98654.53;10406409;28;20179;-77
2021/07/26 11:47:58;;;;;;;5.10;4.77;;;;;;;30.31;45.29;98642.88;10419786;28;20531;-78
2021/07/26 11:53:26;;;;;;;5.30;4.80;;;;;;;28.56;50.95;98671.56;10405780;28;20180;-78
2021/07/26 11:58:45;;;;;;;4.43;3.73;;;;;;;25.63;59.30;98675.06;10419107;28;20216;-77
2021/07/26 12:04:04;;;;;;;4.30;4.00;;;;;;;25.00;62.14;98668.19;10420603;28;20183;-77
2021/07/26 12:09:24;;;;;;;3.17;2.83;;;;;;;26.65;57.93;98658.63;10420326;28;20176;-78
2021/07/26 12:14:44;;;;;;;3.23;2.93;;;;;;;27.43;51.71;98652.91;10418780;28;20180;-76
2021/07/26 12:20:04;;;;;;;3.13;2.93;;;;;;;29.44;45.31;98647.88;10419324;28;20215;-77
2021/07/26 12:25:25;;;;;;;3.63;3.30;;;;;;;30.14;42.24;98631.81;10432554;28;20187;-77
2021/07/26 12:30:47;;;;;;;3.40;3.10;;;;;;;31.19;41.61;98639.09;10443852;28;20305;-78
2021/07/26 12:36:16;;;;;;;2.80;2.60;;;;;;;32.81;38.22;98647.00;10444790;28;20180;-78
2021/07/26 12:41:36;;;;;;;4.93;3.30;;;;;;;33.41;36.66;98636.69;10445108;28;20180;-78
2021/07/26 12:46:55;;;;;;;2.87;2.67;;;;;;;32.46;39.75;98644.09;10458632;28;20175;-78
2021/07/26 12:52:15;;;;;;;3.20;2.60;;;;;;;31.29;39.30;98646.66;10459739;28;20175;-78
2021/07/26 12:57:34;;;;;;;2.73;2.53;;;;;;;32.12;40.42;98649.09;10413331;28;20211;-78
2021/07/26 13:02:54;;;;;;;4.23;4.00;;;;;;;31.92;38.54;98652.66;10416778;28;20172;-78
2021/07/26 13:08:16;;;;;;;4.20;3.80;;;;;;;31.10;41.47;98642.38;10417902;28;20168;-78
2021/07/26 13:13:37;;;;;;;3.33;3.13;;;;;;;29.85;44.11;98648.28;10401551;28;20180;-78
2021/07/26 13:18:56;;;;;;;4.00;3.60;;;;;;;29.40;46.53;98631.19;10417095;28;20211;-77
2021/07/26 13:24:15;;;;;;;4.43;3.70;;;;;;;29.12;47.47;98624.34;10418275;28;20187;-77
2021/07/26 13:29:33;;;;;;;4.10;3.80;;;;;;;28.79;47.30;98616.25;10436802;28;20223;-78
2021/07/26 13:34:52;;;;;;;3.93;3.63;;;;;;;28.54;47.48;98620.38;10458059;28;20183;-77
2021/07/26 13:40:12;;;;;;;4.10;3.50;;;;;;;27.92;50.87;98619.97;10457186;28;20571;-77
2021/07/26 13:45:32;;;;;;;3.97;3.63;;;;;;;27.87;50.82;98612.28;10440565;28;20171;-76
2021/07/26 13:50:51;;;;;;;6.03;4.27;;;;;;;28.61;48.04;98599.97;10442369;28;20646;-78
2021/07/26 13:56:11;;;;;;;3.50;3.30;;;;;;;29.98;43.66;98601.66;10420839;28;20176;-76
2021/07/26 14:01:30;;;;;;;4.00;3.70;;;;;;;30.34;41.94;98594.31;10399621;28;20172;-77
2021/07/26 14:06:49;;;;;;;4.23;3.83;;;;;;;29.42;45.39;98593.78;10400856;28;20191;-76
2021/07/26 14:12:08;;;;;;;4.57;4.27;;;;;;;30.89;40.97;98596.06;10400704;28;20265;-77
2021/07/26 14:17:27;;;;;;;3.97;3.57;;;;;;;30.44;39.89;98606.75;10413856;28;20207;-77
2021/07/26 14:22:46;;;;;;;3.97;3.70;;;;;;;30.46;42.01;98614.72;10415365;28;20176;-77
2021/07/26 14:28:05;;;;;;;3.43;3.23;;;;;;;29.28;43.20;98603.50;10448720;28;21931;-77
2021/07/26 14:33:24;;;;;;;3.90;3.70;;;;;;;28.40;47.58;98596.09;10415732;28;20183;-77
2021/07/26 14:38:43;;;;;;;6.13;4.17;;;;;;;27.96;48.73;98604.22;10399625;28;20208;-76
2021/07/26 14:44:02;;;;;;;6.80;3.77;;;;;;;27.98;48.57;98627.09;10413787;28;20176;-77
2021/07/26 14:49:21;;;;;;;4.17;3.80;;;;;;;27.46;50.31;98642.66;10414703;28;20639;-77
2021/07/26 14:54:40;;;;;;;4.40;4.00;;;;;;;27.14;52.84;98635.13;10425370;28;20195;-77
2021/07/26 14:59:59;;;;;;;10.50;4.80;;;;;;;25.64;59.46;98670.97;10460952;28;20210;-77
2021/07/26 15:05:19;;;;;;;4.67;4.10;;;;;;;24.57;60.68;98658.28;10450877;28;20187;-78
2021/07/26 15:10:39;;;;;;;4.70;3.90;;;;;;;24.91;56.76;98657.16;10450652;28;20176;-78
2021/07/26 15:15:58;;;;;;;4.23;3.93;;;;;;;25.04;57.62;98649.78;10420856;28;20184;-77
2021/07/26 15:21:17;;;;;;;4.50;4.10;;;;;;;25.16;56.38;98659.09;10449224;28;20274;-78
2021/07/26 15:26:36;;;;;;;3.20;3.00;;;;;;;25.14;55.25;98659.56;10463159;28;20183;-77
2021/07/26 15:31:57;;;;;;;3.67;3.37;;;;;;;25.23;59.15;98653.72;10461178;28;20565;-77
2021/07/26 15:37:18;;;;;;;3.77;3.47;;;;;;;25.79;52.64;98646.91;10445736;28;20211;-77
2021/07/26 15:42:39;;;;;;;4.30;3.87;;;;;;;26.16;52.04;98636.91;10437366;28;20187;-77
2021/07/26 15:47:58;;;;;;;3.97;3.67;;;;;;;25.35;55.15;98654.50;10404923;28;20176;-76
2021/07/26 15:53:17;;;;;;;3.90;3.60;;;;;;;25.06;59.39;98647.22;10420005;28;20211;-76
2021/07/26 15:58:36;;;;;;;3.97;3.63;;;;;;;24.32;62.06;98649.91;10406050;28;20215;-76
2021/07/26 16:03:55;;;;;;;4.67;4.33;;;;;;;24.08;64.99;98629.81;10420493;28;20211;-76
2021/07/26 16:09:15;;;;;;;4.10;3.43;;;;;;;23.73;68.00;98629.25;10419630;28;20176;-76
2021/07/26 16:14:34;;;;;;;5.27;4.77;;;;;;;23.64;66.79;98640.69;10403930;28;20187;-77
2021/07/26 16:19:53;;;;;;;4.07;3.80;;;;;;;23.50;66.31;98635.16;10419519;28;20208;-76
2021/07/26 16:25:13;;;;;;;5.23;4.03;;;;;;;23.61;66.88;98636.03;10404711;28;20183;-76
2021/07/26 16:30:31;;;;;;;4.40;4.10;;;;;;;23.55;67.76;98638.03;10417984;28;20251;-77
2021/07/26 16:35:50;;;;;;;4.77;4.37;;;;;;;23.50;68.47;98624.69;10447497;28;20183;-76
2021/07/26 16:41:12;;;;;;;5.03;4.63;;;;;;;23.88;67.16;98617.91;10404675;28;20199;-76
2021/07/26 16:46:31;;;;;;;5.50;4.00;;;;;;;23.88;68.00;98621.50;10402768;28;20184;-76
2021/07/26 16:51:50;;;;;;;5.03;4.67;;;;;;;24.00;68.27;98597.81;10418576;28;20619;-76
2021/07/26 16:57:09;;;;;;;4.47;4.17;;;;;;;24.32;66.16;98585.22;10418394;28;20203;-76
2021/07/26 17:02:28;;;;;;;4.90;4.50;;;;;;;24.74;64.89;98580.34;10402103;28;20541;-76
2021/07/26 17:07:47;;;;;;;4.93;4.53;;;;;;;25.06;61.85;98571.22;10430433;28;20179;-76
2021/07/26 17:13:08;;;;;;;5.50;4.43;;;;;;;25.32;61.83;98602.03;10443960;28;20179;-76
2021/07/26 17:18:27;;;;;;;6.03;4.60;;;;;;;24.85;63.24;98621.81;10458330;28;20692;-76
2021/07/26 17:23:46;;;;;;;10.83;4.50;;;;;;;24.92;64.89;98641.03;10458695;28;20254;-76
2021/07/26 17:29:06;;;;;;;5.40;4.33;;;;;;;24.69;65.39;98647.84;10442020;28;20219;-76
2021/07/26 17:34:25;;;;;;;5.60;4.73;;;;;;;24.65;66.24;98672.63;10458455;28;20545;-76
2021/07/26 17:39:44;;;;;;;4.50;4.20;;;;;;;24.42;67.43;98687.81;10413941;28;20750;-76
2021/07/26 17:45:03;;;;;;;5.10;4.60;;;;;;;24.10;72.71;98694.72;10415193;28;20188;-75
2021/07/26 17:50:26;;;;;;;6.10;4.40;;;;;;;24.14;69.77;98682.00;10416508;28;20164;-76
2021/07/26 17:55:45;;;;;;;5.27;4.80;;;;;;;25.02;65.40;98680.50;10416285;28;20184;-76
2021/07/26 18:01:04;;;;;;;4.70;4.33;;;;;;;24.93;64.91;98687.63;10414767;28;20184;-77
2021/07/26 18:06:24;;;;;;;5.10;4.13;;;;;;;24.76;64.81;98683.94;10401067;28;20176;-76
2021/07/26 18:11:43;;;;;;;5.10;4.70;;;;;;;24.64;66.94;98693.59;10431843;28;20179;-77
2021/07/26 18:17:01;;;;;;;4.80;4.50;;;;;;;24.63;66.34;98689.25;10455301;28;20394;-76
2021/07/26 18:22:21;;;;;;;5.23;4.10;;;;;;;24.55;65.70;98688.19;10441565;28;20183;-77
2021/07/26 18:27:40;;;;;;;4.93;4.53;;;;;;;24.35;67.08;98685.47;10456386;28;20621;-76
2021/07/26 18:33:00;;;;;;;4.77;4.37;;;;;;;24.19;67.46;98708.59;10453971;28;20227;-76
2021/07/26 18:38:19;;;;;;;4.60;4.30;;;;;;;23.94;68.83;98698.16;10439316;28;20216;-77
2021/07/26 18:43:38;;;;;;;9.53;4.60;;;;;;;23.81;72.73;98697.03;10413756;28;20681;-77
2021/07/26 18:48:57;;;;;;;4.80;4.50;;;;;;;23.39;74.30;98694.00;10414748;28;20204;-76
2021/07/26 18:54:16;;;;;;;4.90;4.60;;;;;;;23.16;75.11;98705.50;10399781;28;20171;-76
2021/07/26 18:59:35;;;;;;;5.70;5.13;;;;;;;22.95;76.15;98701.91;10397858;28;20207;-77
2021/07/26 19:04:54;;;;;;;5.63;4.93;;;;;;;22.75;78.33;98715.16;10399147;28;20259;-76
2021/07/26 19:10:13;;;;;;;7.07;5.57;;;;;;;22.51;78.94;98706.16;10445909;28;20191;-76
2021/07/26 19:15:32;;;;;;;5.63;5.13;;;;;;;22.44;79.97;98705.75;10439010;28;20175;-76
2021/07/26 19:20:52;;;;;;;5.40;5.00;;;;;;;22.21;80.70;98701.81;10439778;28;20223;-76
2021/07/26 19:26:11;;;;;;;6.23;5.30;;;;;;;22.00;81.95;98703.03;10440108;28;20281;-76
2021/07/26 19:31:31;;;;;;;6.40;5.80;;;;;;;21.86;83.46;98706.63;10453504;28;20218;-76
2021/07/26 19:36:50;;;;;;;5.77;5.27;;;;;;;21.78;86.26;98722.25;10450906;28;20216;-76
2021/07/26 19:42:10;;;;;;;5.67;5.30;;;;;;;21.58;86.91;98718.56;10413882;28;20218;-76
2021/07/26 19:47:29;;;;;;;6.30;5.70;;;;;;;21.30;87.90;98713.69;10404349;28;20184;-77
2021/07/26 19:52:48;;;;;;;5.67;5.20;;;;;;;21.31;88.49;98720.81;10441119;28;20187;-77
2021/07/26 19:58:08;;;;;;;8.67;6.10;;;;;;;21.11;89.28;98713.06;10446482;28;20657;-76
2021/07/26 20:03:27;;;;;;;12.63;6.60;;;;;;;21.06;90.72;98715.75;10446813;28;20172;-76
2021/07/26 20:08:45;;;;;;;9.40;5.53;;;;;;;21.10;91.39;98742.28;10427266;28;20534;-77
2021/07/26 20:14:04;;;;;;;7.10;6.50;;;;;;;20.84;91.29;98764.84;10419014;28;20195;-76
2021/07/26 20:19:23;;;;;;;6.40;5.80;;;;;;;20.71;90.91;98751.06;10419701;28;20203;-76
2021/07/26 20:24:43;;;;;;;6.00;5.23;;;;;;;20.61;92.10;98759.97;10419739;28;20651;-76
2021/07/26 20:30:02;;;;;;;7.13;5.53;;;;;;;20.43;93.25;98765.63;10418104;28;20236;-77
2021/07/26 20:35:22;;;;;;;5.87;5.37;;;;;;;20.38;94.62;98774.66;10404373;28;20175;-77
2021/07/26 20:40:41;;;;;;;6.40;5.83;;;;;;;20.35;95.17;98789.56;10453411;28;20207;-75
2021/07/26 20:46:00;;;;;;;6.40;5.43;;;;;;;20.32;96.06;98793.31;10459089;28;20687;-76
2021/07/26 20:51:19;;;;;;;6.67;5.20;;;;;;;20.20;98.34;98805.47;10460067;28;20171;-76
2021/07/26 20:56:39;;;;;;;6.80;5.20;;;;;;;20.11;99.23;98797.88;10459386;28;20598;-76
2021/07/26 21:01:58;;;;;;;5.50;5.10;;;;;;;20.19;99.81;98789.94;10458407;28;20187;-76
2021/07/26 21:07:17;;;;;;;5.00;4.60;;;;;;;20.11;100.00;98808.28;10437090;28;20627;-76
2021/07/26 21:12:36;;;;;;;5.50;5.10;;;;;;;20.12;100.00;98798.66;10402783;28;20557;-76
2021/07/26 21:17:56;;;;;;;5.17;4.63;;;;;;;20.20;100.00;98802.66;10416274;28;20287;-76
2021/07/26 21:23:15;;;;;;;5.03;4.63;;;;;;;20.23;100.00;98804.53;10402461;28;20179;-76
2021/07/26 21:28:34;;;;;;;5.03;4.60;;;;;;;20.12;100.00;98801.44;10415967;28;20686;-75
2021/07/26 21:33:52;;;;;;;4.70;4.40;;;;;;;20.07;100.00;98802.09;10417010;28;20188;-75
2021/07/26 21:39:12;;;;;;;6.33;4.87;;;;;;;20.10;100.00;98815.91;10424149;28;20211;-76
2021/07/26 21:44:31;;;;;;;5.30;4.90;;;;;;;19.93;100.00;98827.06;10401814;28;20180;-76
2021/07/26 21:49:50;;;;;;;5.00;4.57;;;;;;;19.95;100.00;98816.22;10401569;28;20259;-76
2021/07/26 21:55:10;;;;;;;4.80;4.40;;;;;;;19.85;100.00;98823.03;10416310;28;20200;-75
2021/07/26 22:00:29;;;;;;;6.07;4.73;;;;;;;19.95;100.00;98821.81;10414292;28;20216;-76
2021/07/26 22:05:48;;;;;;;5.33;4.93;;;;;;;20.00;100.00;98835.13;10415062;28;20577;-75
2021/07/26 22:11:06;;;;;;;4.63;4.20;;;;;;;20.04;100.00;98845.66;10455088;28;20265;-75
2021/07/26 22:16:25;;;;;;;5.27;4.30;;;;;;;20.04;100.00;98845.66;10455451;28;20622;-75
2021/07/26 22:21:45;;;;;;;4.63;4.30;;;;;;;19.96;100.00;98840.88;10441437;28;20183;-75
2021/07/26 22:27:05;;;;;;;4.90;4.50;;;;;;;19.82;100.00;98840.72;10441534;28;20175;-75
2021/07/26 22:32:26;;;;;;;4.70;4.40;;;;;;;19.64;100.00;98840.72;10439411;28;20215;-75
2021/07/26 22:37:47;;;;;;;5.90;5.40;;;;;;;19.50;100.00;98844.13;10442937;28;20238;-76
2021/07/26 22:43:06;;;;;;;5.53;5.10;;;;;;;19.35;100.00;98848.75;10414911;28;20168;-76
2021/07/26 22:48:25;;;;;;;5.10;4.70;;;;;;;19.33;100.00;98854.03;10414722;28;20171;-76
2021/07/26 22:53:44;;;;;;;5.83;5.13;;;;;;;19.28;100.00;98846.28;10399566;28;20199;-76
2021/07/26 22:59:03;;;;;;;5.40;4.83;;;;;;;19.28;100.00;98846.28;10397518;28;20678;-76
2021/07/26 23:04:22;;;;;;;5.90;5.30;;;;;;;19.17;100.00;98851.53;10399649;28;20176;-75
2021/07/26 23:09:42;;;;;;;6.10;5.60;;;;;;;19.22;100.00;98847.34;10426905;28;20191;-76
2021/07/26 23:15:00;;;;;;;5.63;5.17;;;;;;;19.12;100.00;98849.34;10439231;28;20693;-76
2021/07/26 23:20:20;;;;;;;5.80;4.87;;;;;;;19.14;100.00;98838.53;10445163;28;20210;-76
2021/07/26 23:25:41;;;;;;;5.53;5.13;;;;;;;19.03;100.00;98846.50;10448408;28;20171;-76
2021/07/26 23:31:08;;;;;;;7.70;5.07;;;;;;;19.03;100.00;98834.56;10446066;28;20222;-75
2021/07/26 23:36:27;;;;;;;6.23;5.63;;;;;;;18.83;100.00;98859.31;10459220;28;20180;-75
2021/07/26 23:41:47;;;;;;;6.23;5.50;;;;;;;18.60;100.00;98860.59;10451929;28;20179;-76
2021/07/26 23:47:07;;;;;;;7.23;6.03;;;;;;;18.47;100.00;98857.16;10461274;28;20580;-75
2021/07/26 23:52:27;;;;;;;6.43;5.83;;;;;;;18.34;100.00;98860.44;10462384;28;20175;-76
2021/07/26 23:57:45;;;;;;;7.80;7.10;;;;;;;18.29;100.00;98861.06;10461808;28;20210;-76
